Albert Maersk — OUOW2 — position and weather

sailwx.info

Track history (hours):
 
Tides and Currents Weather Stations Pressure Air Temp Water Temp Dewpoint Dewpoint Depression Visibility Wind Speed Wind Dir Waves Ship Positions

Albert Maersk

Last reported at 2016-Nov-30 11:34 UTC. Time now 2016-Dec-02 20:17 UTC.
Position N 34°19' W 120°20'.

MMSI: 220259928.

Date/timePositionNaut miles runAvg speedWind from/ knotsBaromVisibWave heightAir tempDewpointWater temp
2016-Nov-30 11:34N 34°19' W 120°20'10 9.5
2016-Nov-30 10:30N 34°16' W 120°09'9 9.5
2016-Nov-30 09:33N 34°14' W 119°58'11 9.3
2016-Nov-30 08:25N 34°11' W 119°46'9 9.2
2016-Nov-30 07:24N 34°09' W 119°35'1010.0
2016-Nov-30 06:23N 34°06' W 119°23'1011.5
2016-Nov-30 05:33N 34°03' W 119°12'1311.8
2016-Nov-30 04:27N 33°56' W 118°58'1111.8
2016-Nov-30 03:33N 33°51' W 118°47'1311.4
2016-Nov-30 02:24N 33°45' W 118°34'911.1
2016-Nov-30 01:33N 33°40' W 118°24'10 9.6
2016-Nov-30 00:33N 33°40' W 118°12'6 0.6
2016-Nov-29 13:28N 33°46' W 118°14'  
2016-Nov-26 11:31N 33°46' W 118°14'0 0.0
2016-Nov-26 07:31N 33°46' W 118°14'1 0.7
2016-Nov-26 06:29N 33°46' W 118°13'8 5.8
2016-Nov-26 05:04N 33°38' W 118°11'5 9.9
2016-Nov-26 04:33N 33°36' W 118°17'1111.3
2016-Nov-26 03:33N 33°40' W 118°29'1211.6
2016-Nov-26 02:33N 33°46' W 118°41'1714.5
2016-Nov-26 01:23N 33°54' W 118°59'1619.7
2016-Nov-26 00:33N 34°02' W 119°16'1414.3
2016-Nov-25 23:33N 34°06' W 119°33'1010.0
2016-Nov-25 22:34N 34°09' W 119°44'1210.3
2016-Nov-25 21:26N 34°12' W 119°58'10 9.7
2016-Nov-25 20:23N 34°15' W 120°10'8 9.4
2016-Nov-25 19:31N 34°17' W 120°19'9 9.5
2016-Nov-25 18:33N 34°19' W 120°30'1915.5
2016-Nov-25 17:19N 34°24' W 120°52'13317.1
2016-Nov-25 09:34N 36°07' W 122°36'2020.2
2016-Nov-25 08:34N 36°23' W 122°51'2020.1
2016-Nov-25 07:33N 36°39' W 123°06'6719.4
2016-Nov-25 04:05N 37°38' W 123°47'1019.4
2016-Nov-25 03:33N 37°48' W 123°51'1919.2
2016-Nov-25 02:33N 38°06' W 123°59'1919.5
2016-Nov-25 01:34N 38°24' W 124°07'  
Track history (hours):
 
Tides and Currents Weather Stations Pressure Air Temp Water Temp Dewpoint Dewpoint Depression Visibility Wind Speed Wind Dir Waves Ship Positions

Albert Maersk

Last reported at 2016-Nov-30 11:34 UTC. Time now 2016-Dec-02 20:17 UTC.
Position N 34°19' W 120°20'.

MMSI: 220259928.

Date/timePositionNaut miles runAvg speedWind from/ knotsBaromVisibWave heightAir tempDewpointWater temp
2016-Nov-30 11:34N 34°19' W 120°20'10 9.5
2016-Nov-30 10:30N 34°16' W 120°09'9 9.5
2016-Nov-30 09:33N 34°14' W 119°58'11 9.3
2016-Nov-30 08:25N 34°11' W 119°46'9 9.2
2016-Nov-30 07:24N 34°09' W 119°35'1010.0
2016-Nov-30 06:23N 34°06' W 119°23'1011.5
2016-Nov-30 05:33N 34°03' W 119°12'1311.8
2016-Nov-30 04:27N 33°56' W 118°58'1111.8
2016-Nov-30 03:33N 33°51' W 118°47'1311.4
2016-Nov-30 02:24N 33°45' W 118°34'911.1
2016-Nov-30 01:33N 33°40' W 118°24'10 9.6
2016-Nov-30 00:33N 33°40' W 118°12'6 0.6
2016-Nov-29 13:28N 33°46' W 118°14'  
2016-Nov-26 11:31N 33°46' W 118°14'0 0.0
2016-Nov-26 07:31N 33°46' W 118°14'1 0.7
2016-Nov-26 06:29N 33°46' W 118°13'8 5.8
2016-Nov-26 05:04N 33°38' W 118°11'5 9.9
2016-Nov-26 04:33N 33°36' W 118°17'1111.3
2016-Nov-26 03:33N 33°40' W 118°29'1211.6
2016-Nov-26 02:33N 33°46' W 118°41'1714.5
2016-Nov-26 01:23N 33°54' W 118°59'1619.7
2016-Nov-26 00:33N 34°02' W 119°16'1414.3
2016-Nov-25 23:33N 34°06' W 119°33'1010.0
2016-Nov-25 22:34N 34°09' W 119°44'1210.3
2016-Nov-25 21:26N 34°12' W 119°58'10 9.7
2016-Nov-25 20:23N 34°15' W 120°10'8 9.4
2016-Nov-25 19:31N 34°17' W 120°19'9 9.5
2016-Nov-25 18:33N 34°19' W 120°30'1915.5
2016-Nov-25 17:19N 34°24' W 120°52'13317.1
2016-Nov-25 09:34N 36°07' W 122°36'2020.2
2016-Nov-25 08:34N 36°23' W 122°51'2020.1
2016-Nov-25 07:33N 36°39' W 123°06'6719.4
2016-Nov-25 04:05N 37°38' W 123°47'1019.4
2016-Nov-25 03:33N 37°48' W 123°51'1919.2
2016-Nov-25 02:33N 38°06' W 123°59'1919.5
2016-Nov-25 01:34N 38°24' W 124°07'  

Dump ship's entire track history